createdAt,value
2023-08-17T00:01:30.156Z,20.49
2023-08-17T00:03:56.953Z,20.48
2023-08-17T00:06:23.640Z,20.40
2023-08-17T00:08:51.716Z,20.33
2023-08-17T00:11:18.394Z,20.29
2023-08-17T00:13:45.246Z,20.35
2023-08-17T00:16:12.020Z,20.32
2023-08-17T00:18:38.706Z,20.38
2023-08-17T00:21:05.831Z,20.38
2023-08-17T00:23:32.577Z,20.33
2023-08-17T00:26:00.909Z,20.29
2023-08-17T00:28:27.617Z,20.15
2023-08-17T00:30:54.346Z,19.98
2023-08-17T00:33:21.108Z,20.05
2023-08-17T00:35:47.879Z,20.02
2023-08-17T00:38:14.789Z,20.04
2023-08-17T00:40:41.541Z,20.08
2023-08-17T00:43:09.679Z,20.05
2023-08-17T00:45:36.714Z,20.14
2023-08-17T00:48:03.904Z,20.09
2023-08-17T00:50:30.621Z,20.08
2023-08-17T00:52:57.554Z,19.97
2023-08-17T00:55:24.279Z,19.95
2023-08-17T00:57:51.059Z,19.97
2023-08-17T01:00:20.080Z,19.99
2023-08-17T01:02:47.102Z,20.01
2023-08-17T01:05:13.859Z,20.09
2023-08-17T01:07:40.610Z,20.19
2023-08-17T01:10:07.721Z,20.22
2023-08-17T01:12:37.385Z,20.26
2023-08-17T01:15:06.819Z,20.15
2023-08-17T01:17:38.058Z,19.97
2023-08-17T01:20:06.050Z,19.97
2023-08-17T01:22:32.827Z,19.98
2023-08-17T01:25:00.912Z,19.91
2023-08-17T01:27:33.917Z,19.97
2023-08-17T01:30:00.589Z,19.88
2023-08-17T01:32:29.956Z,19.74
2023-08-17T01:34:58.897Z,19.73
2023-08-17T01:37:26.732Z,19.85
2023-08-17T01:39:53.956Z,19.88
2023-08-17T01:42:22.633Z,19.84
2023-08-17T01:44:49.327Z,19.98
2023-08-17T01:47:16.325Z,20.09
2023-08-17T01:49:43.053Z,20.17
2023-08-17T01:52:09.750Z,20.33
2023-08-17T01:54:36.823Z,20.39
2023-08-17T01:57:03.985Z,20.50
2023-08-17T01:59:32.060Z,20.46
2023-08-17T02:01:58.798Z,20.53
2023-08-17T02:04:25.638Z,20.59
2023-08-17T02:06:52.428Z,20.53
2023-08-17T02:09:19.096Z,20.60
2023-08-17T02:11:45.814Z,20.84
2023-08-17T02:14:12.516Z,20.69
2023-08-17T02:16:40.679Z,20.59
2023-08-17T02:19:07.511Z,20.57
2023-08-17T02:21:34.363Z,20.56
2023-08-17T02:24:01.048Z,20.53
2023-08-17T02:26:27.828Z,20.45
2023-08-17T02:28:54.471Z,20.48
2023-08-17T02:31:21.187Z,20.39
2023-08-17T02:33:50.376Z,20.39
2023-08-17T02:36:17.474Z,20.40
2023-08-17T02:38:44.210Z,20.39
2023-08-17T02:41:11.074Z,20.40
2023-08-17T02:43:37.818Z,20.45
2023-08-17T02:46:04.566Z,20.60
2023-08-17T02:48:32.965Z,20.53
2023-08-17T02:51:01.448Z,20.59
2023-08-17T02:53:28.111Z,20.46
2023-08-17T02:55:54.831Z,20.49
2023-08-17T02:58:21.517Z,20.46
2023-08-17T03:00:48.201Z,20.56
2023-08-17T03:03:15.112Z,20.53
2023-08-17T03:05:41.838Z,20.42
2023-08-17T03:08:09.940Z,20.45
2023-08-17T03:10:37.873Z,20.40
2023-08-17T03:13:04.789Z,20.40
2023-08-17T03:15:31.562Z,20.35
2023-08-17T03:17:58.397Z,20.28
2023-08-17T03:20:25.088Z,20.24
2023-08-17T03:22:51.804Z,20.15
2023-08-17T03:25:20.053Z,20.11
2023-08-17T03:27:47.301Z,20.21
2023-08-17T03:30:14.020Z,20.15
2023-08-17T03:32:40.868Z,20.07
2023-08-17T03:35:08.580Z,19.95
2023-08-17T03:37:35.284Z,19.95
2023-08-17T03:40:01.947Z,19.91
2023-08-17T03:42:30.032Z,19.85
2023-08-17T03:44:57.107Z,19.82
2023-08-17T03:47:24.049Z,19.78
2023-08-17T03:49:50.882Z,19.84
2023-08-17T03:52:18.154Z,19.78
2023-08-17T03:54:44.899Z,19.84
2023-08-17T03:57:11.527Z,19.80
2023-08-17T03:59:39.801Z,19.80
2023-08-17T04:02:06.568Z,19.88
2023-08-17T04:04:33.377Z,19.77
2023-08-17T04:07:00.168Z,19.77
2023-08-17T04:09:27.050Z,19.73
2023-08-17T04:11:53.787Z,19.75
2023-08-17T04:14:20.516Z,19.85
2023-08-17T04:16:48.650Z,19.92
2023-08-17T04:19:15.450Z,20.02
2023-08-17T04:21:42.193Z,20.29
2023-08-17T04:24:09.016Z,20.40
2023-08-17T04:26:35.755Z,20.59
2023-08-17T04:29:02.442Z,20.57
2023-08-17T04:31:29.270Z,20.76
2023-08-17T04:33:57.632Z,20.93
2023-08-17T04:36:24.289Z,20.96
2023-08-17T04:38:50.957Z,20.98
2023-08-17T04:41:17.998Z,21.07
2023-08-17T04:43:44.682Z,21.08
2023-08-17T04:46:11.436Z,21.03
2023-08-17T04:48:38.751Z,20.87
2023-08-17T04:51:06.779Z,20.67
2023-08-17T04:53:33.632Z,20.70
2023-08-17T04:56:00.364Z,20.63
2023-08-17T04:58:27.084Z,20.69
2023-08-17T05:00:53.877Z,20.90
2023-08-17T05:03:32.913Z,21.14
2023-08-17T05:06:00.636Z,21.17
2023-08-17T05:08:28.818Z,21.48
2023-08-17T05:10:55.606Z,21.46
2023-08-17T05:13:22.390Z,21.99
2023-08-17T05:15:49.320Z,22.03
2023-08-17T05:18:16.015Z,22.36
2023-08-17T05:20:42.703Z,22.14
2023-08-17T05:23:09.391Z,22.22
2023-08-17T05:25:37.470Z,22.47
2023-08-17T05:28:05.381Z,22.78
2023-08-17T05:30:32.065Z,23.19
2023-08-17T05:32:58.916Z,22.88
2023-08-17T05:35:25.806Z,22.61
2023-08-17T05:37:52.466Z,22.91
2023-08-17T05:40:19.364Z,22.94
2023-08-17T05:42:47.511Z,22.95
2023-08-17T05:45:14.265Z,22.82
2023-08-17T05:47:40.953Z,23.26
2023-08-17T05:50:08.764Z,22.91
2023-08-17T05:52:35.476Z,23.07
2023-08-17T05:55:02.239Z,23.49
2023-08-17T05:57:29.225Z,24.48
2023-08-17T05:59:57.409Z,24.95
2023-08-17T06:02:24.159Z,24.91
2023-08-17T06:04:50.868Z,24.87
2023-08-17T06:07:17.528Z,25.11
2023-08-17T06:09:44.285Z,25.76
2023-08-17T06:12:10.969Z,25.43
2023-08-17T06:14:37.695Z,25.17
2023-08-17T06:17:05.949Z,25.36
2023-08-17T06:19:32.824Z,24.69
2023-08-17T06:22:00.633Z,24.71
2023-08-17T06:24:27.368Z,25.55
2023-08-17T06:26:54.121Z,24.70
2023-08-17T06:29:20.827Z,25.69
2023-08-17T06:31:47.501Z,24.94
2023-08-17T06:34:15.774Z,25.86
2023-08-17T06:36:42.472Z,25.70
2023-08-17T06:39:09.535Z,25.31
2023-08-17T06:41:36.249Z,25.21
2023-08-17T06:44:03.020Z,25.41
2023-08-17T06:46:29.906Z,25.94
2023-08-17T06:48:56.620Z,25.38
2023-08-17T06:51:24.716Z,24.76
2023-08-17T06:53:51.434Z,25.00
2023-08-17T06:56:18.154Z,25.49
2023-08-17T06:58:44.856Z,24.73
2023-08-17T07:01:12.038Z,25.12
2023-08-17T07:03:39.596Z,24.37
2023-08-17T07:06:06.345Z,25.45
2023-08-17T07:08:34.426Z,24.79
2023-08-17T07:11:01.189Z,25.25
2023-08-17T07:13:27.927Z,25.04
2023-08-17T07:15:54.792Z,25.22
2023-08-17T07:18:24.552Z,26.23
2023-08-17T07:20:51.296Z,25.87
2023-08-17T07:23:18.163Z,25.58
2023-08-17T07:25:46.472Z,26.67
2023-08-17T07:28:13.228Z,26.17
2023-08-17T07:30:40.011Z,26.48
2023-08-17T07:33:06.758Z,26.72
2023-08-17T07:35:33.569Z,26.86
2023-08-17T07:38:09.067Z,26.38
2023-08-17T07:40:36.841Z,26.35
2023-08-17T07:43:05.094Z,26.41
2023-08-17T07:45:31.876Z,26.11
2023-08-17T07:47:58.616Z,26.55
2023-08-17T07:50:25.384Z,27.09
2023-08-17T07:52:52.109Z,27.34
2023-08-17T07:55:19.919Z,28.01
2023-08-17T07:57:46.633Z,27.44
2023-08-17T08:00:16.089Z,27.69
2023-08-17T08:02:42.860Z,27.53
2023-08-17T08:05:10.162Z,27.47
2023-08-17T08:07:36.951Z,27.99
2023-08-17T08:10:03.906Z,28.31
2023-08-17T08:12:30.660Z,28.90
2023-08-17T08:14:57.398Z,27.69
2023-08-17T08:17:25.758Z,28.10
2023-08-17T08:19:52.748Z,28.71
2023-08-17T08:22:19.699Z,30.17
2023-08-17T08:24:46.448Z,31.65
2023-08-17T08:27:13.160Z,31.26
2023-08-17T08:29:40.601Z,30.45
2023-08-17T08:32:07.319Z,31.12
2023-08-17T08:34:35.419Z,29.66
2023-08-17T08:37:02.090Z,31.02
2023-08-17T08:39:28.870Z,31.10
2023-08-17T08:41:55.705Z,29.18
2023-08-17T08:44:22.451Z,29.62
2023-08-17T08:46:50.010Z,29.69
2023-08-17T08:49:19.806Z,31.64
2023-08-17T08:51:50.773Z,30.78
2023-08-17T08:54:21.213Z,29.25
2023-08-17T08:56:48.415Z,27.92
2023-08-17T08:59:15.435Z,29.22
2023-08-17T09:01:42.267Z,28.09
2023-08-17T09:04:09.055Z,29.21
2023-08-17T09:06:35.780Z,29.07
2023-08-17T09:09:04.048Z,27.65
2023-08-17T09:11:30.855Z,27.91
2023-08-17T09:13:57.567Z,28.87
2023-08-17T09:16:25.837Z,28.31
2023-08-17T09:18:53.683Z,27.55
2023-08-17T09:21:23.584Z,28.22
2023-08-17T09:23:58.919Z,27.77
2023-08-17T09:26:31.696Z,29.38
2023-08-17T09:28:58.529Z,31.31
2023-08-17T09:31:25.686Z,28.87
2023-08-17T09:33:52.603Z,29.70
2023-08-17T09:36:21.674Z,30.62
2023-08-17T09:38:48.955Z,29.45
2023-08-17T09:41:15.751Z,30.66
2023-08-17T09:43:43.946Z,31.31
2023-08-17T09:46:11.072Z,32.75
2023-08-17T09:48:37.948Z,36.47
2023-08-17T09:51:04.725Z,32.20
2023-08-17T09:53:35.840Z,32.88
2023-08-17T09:56:02.629Z,31.52
2023-08-17T09:58:32.031Z,34.25
2023-08-17T10:01:01.241Z,35.03
2023-08-17T10:03:28.029Z,32.02
2023-08-17T10:05:56.969Z,32.77
2023-08-17T10:08:23.703Z,30.63
2023-08-17T10:10:56.424Z,32.02
2023-08-17T10:13:27.501Z,32.90
2023-08-17T10:15:58.410Z,36.25
2023-08-17T10:18:30.360Z,34.00
2023-08-17T10:21:02.746Z,32.02
2023-08-17T10:23:29.476Z,31.45
2023-08-17T10:29:28.104Z,31.81
2023-08-17T10:31:54.897Z,32.26
2023-08-17T10:34:23.329Z,33.10
2023-08-17T10:36:50.038Z,31.96
2023-08-17T10:39:21.303Z,32.71
2023-08-17T10:41:48.052Z,31.04
2023-08-17T10:44:14.800Z,31.00
2023-08-17T10:46:41.789Z,30.24
2023-08-17T10:49:24.612Z,30.54
2023-08-17T10:52:03.394Z,31.24
2023-08-17T10:54:37.645Z,31.68
2023-08-17T10:57:19.094Z,33.70
2023-08-17T10:59:45.866Z,32.78
2023-08-17T11:02:12.592Z,29.96
2023-08-17T11:04:39.371Z,31.57
2023-08-17T11:07:07.509Z,32.70
2023-08-17T11:09:36.434Z,32.06
2023-08-17T11:12:03.182Z,31.57
2023-08-17T11:14:34.317Z,30.99
2023-08-17T11:17:06.285Z,30.66
2023-08-17T11:19:33.501Z,29.21
2023-08-17T11:22:00.173Z,30.27
2023-08-17T11:24:29.482Z,33.25
2023-08-17T11:26:56.866Z,31.74
2023-08-17T11:29:23.518Z,30.41
2023-08-17T11:31:52.209Z,31.12
2023-08-17T11:34:18.892Z,31.81
2023-08-17T11:36:45.578Z,31.06
2023-08-17T11:39:12.562Z,30.21
2023-08-17T11:41:40.632Z,30.49
2023-08-17T11:44:07.342Z,30.71
2023-08-17T11:46:34.060Z,30.04
2023-08-17T11:49:00.796Z,30.69
2023-08-17T11:51:30.490Z,31.37
2023-08-17T11:54:00.528Z,31.31
2023-08-17T11:56:27.268Z,30.99
2023-08-17T11:58:55.321Z,30.73
2023-08-17T12:01:22.342Z,32.87
2023-08-17T12:03:49.565Z,32.95
2023-08-17T12:06:16.970Z,32.19
2023-08-17T12:08:46.712Z,31.92
2023-08-17T12:11:13.998Z,32.47
2023-08-17T12:13:40.801Z,33.85
2023-08-17T12:16:15.764Z,31.92
2023-08-17T12:18:45.228Z,33.35
2023-08-17T12:21:12.424Z,32.20
2023-08-17T12:23:39.247Z,33.81
2023-08-17T12:26:06.011Z,34.48
2023-08-17T12:28:33.539Z,34.59
2023-08-17T12:31:00.595Z,33.60
2023-08-17T12:33:28.889Z,33.33
2023-08-17T12:35:55.701Z,34.62
2023-08-17T12:38:24.356Z,32.92
2023-08-17T12:40:51.075Z,31.09
2023-08-17T12:43:17.804Z,29.87
2023-08-17T12:45:44.611Z,31.33
2023-08-17T12:48:11.728Z,31.62
2023-08-17T12:53:09.523Z,30.48
2023-08-17T12:55:36.228Z,31.89
2023-08-17T12:58:03.226Z,30.96
2023-08-17T13:00:30.112Z,30.68
2023-08-17T13:02:56.924Z,30.08
2023-08-17T13:05:23.605Z,30.61
2023-08-17T13:07:51.803Z,29.88
2023-08-17T13:10:18.577Z,30.11
2023-08-17T13:12:45.289Z,30.11
2023-08-17T13:15:12.742Z,30.14
2023-08-17T13:17:39.594Z,29.76
2023-08-17T13:20:07.534Z,30.44
2023-08-17T13:22:34.299Z,30.51
2023-08-17T13:25:02.921Z,30.38
2023-08-17T13:27:29.650Z,29.76
2023-08-17T13:29:56.370Z,29.42
2023-08-17T13:32:23.360Z,28.94
2023-08-17T13:34:50.146Z,29.62
2023-08-17T13:37:16.898Z,29.45
2023-08-17T13:39:43.936Z,29.08
2023-08-17T13:42:12.268Z,29.90
2023-08-17T13:44:39.255Z,29.91
2023-08-17T13:47:05.940Z,29.77
2023-08-17T13:49:33.047Z,30.38
2023-08-17T13:51:59.749Z,30.25
2023-08-17T13:54:26.524Z,30.32
2023-08-17T13:56:54.009Z,30.45
2023-08-17T13:59:22.343Z,30.80
2023-08-17T14:01:49.067Z,30.51
2023-08-17T14:04:15.789Z,30.84
2023-08-17T14:06:43.542Z,30.58
2023-08-17T14:09:10.284Z,30.87
2023-08-17T14:11:36.983Z,30.93
2023-08-17T14:14:03.815Z,30.34
2023-08-17T14:16:33.226Z,30.13
2023-08-17T14:19:00.092Z,29.50
2023-08-17T14:21:26.866Z,28.77
2023-08-17T14:23:53.826Z,28.36
2023-08-17T14:26:20.591Z,28.90
2023-08-17T14:28:47.368Z,28.63
2023-08-17T14:31:14.102Z,28.19
2023-08-17T14:33:42.231Z,28.37
2023-08-17T14:36:08.981Z,28.65
2023-08-17T14:38:35.743Z,28.71
2023-08-17T14:41:03.707Z,28.33
2023-08-17T14:43:30.636Z,28.04
2023-08-17T14:45:57.330Z,27.34
2023-08-17T14:48:24.183Z,27.23
2023-08-17T14:50:52.356Z,27.26
2023-08-17T14:53:19.065Z,27.17
2023-08-17T14:55:50.181Z,27.37
2023-08-17T14:58:17.112Z,27.31
2023-08-17T15:00:44.148Z,27.17
2023-08-17T15:03:10.966Z,27.16
2023-08-17T15:05:37.745Z,27.36
2023-08-17T15:08:06.382Z,27.67
2023-08-17T15:10:33.892Z,27.36
2023-08-17T15:13:00.813Z,27.96
2023-08-17T15:15:27.715Z,28.43
2023-08-17T15:17:54.471Z,29.45
2023-08-17T15:20:21.265Z,29.90
2023-08-17T15:22:48.018Z,29.59
2023-08-17T15:25:16.345Z,29.79
2023-08-17T15:27:43.864Z,30.32
2023-08-17T15:30:11.108Z,31.50
2023-08-17T15:32:37.934Z,32.30
2023-08-17T15:35:05.436Z,34.35
2023-08-17T15:37:32.133Z,34.16
2023-08-17T15:39:58.995Z,32.08
2023-08-17T15:42:27.437Z,32.53
2023-08-17T15:44:54.840Z,32.13
2023-08-17T15:47:21.520Z,33.45
2023-08-17T15:49:48.272Z,31.89
2023-08-17T15:52:15.241Z,33.33
2023-08-17T15:54:42.001Z,32.75
2023-08-17T15:57:09.710Z,33.46
2023-08-17T15:59:37.754Z,33.36
2023-08-17T16:02:04.700Z,31.90
2023-08-17T16:04:31.493Z,30.07
2023-08-17T16:06:58.218Z,28.81
2023-08-17T16:09:30.557Z,28.26
2023-08-17T16:11:57.931Z,27.59
2023-08-17T16:14:24.808Z,27.43
2023-08-17T16:16:56.644Z,28.81
2023-08-17T16:19:24.681Z,29.36
2023-08-17T16:21:51.431Z,29.67
2023-08-17T16:24:18.150Z,29.60
2023-08-17T16:26:44.835Z,29.96
2023-08-17T16:29:11.578Z,30.01
2023-08-17T16:31:38.311Z,30.03
2023-08-17T16:34:06.620Z,30.27
2023-08-17T16:36:36.791Z,30.06
2023-08-17T16:39:04.904Z,30.23
2023-08-17T16:41:31.633Z,29.73
2023-08-17T16:43:58.333Z,28.92
2023-08-17T16:46:25.130Z,28.98
2023-08-17T16:48:51.828Z,28.22
2023-08-17T16:51:19.938Z,27.96
2023-08-17T16:53:46.696Z,27.64
2023-08-17T16:56:13.437Z,27.58
2023-08-17T16:58:40.280Z,27.31
2023-08-17T17:01:14.410Z,27.30
2023-08-17T17:03:42.288Z,27.20
2023-08-17T17:06:09.229Z,26.98
2023-08-17T17:08:37.375Z,27.09
2023-08-17T17:11:04.961Z,26.93
2023-08-17T17:13:31.850Z,26.79
2023-08-17T17:15:58.586Z,26.82
2023-08-17T17:18:25.709Z,26.45
2023-08-17T17:20:52.446Z,26.41
2023-08-17T17:23:19.159Z,26.31
2023-08-17T17:25:47.349Z,26.16
2023-08-17T17:28:14.066Z,25.59
2023-08-17T17:30:41.030Z,25.38
2023-08-17T17:33:07.844Z,25.42
2023-08-17T17:35:35.230Z,25.39
2023-08-17T17:38:02.282Z,25.35
2023-08-17T17:40:29.312Z,25.10
2023-08-17T17:42:58.702Z,25.21
2023-08-17T17:45:26.044Z,24.81
2023-08-17T17:47:52.824Z,24.74
2023-08-17T17:50:19.536Z,24.61
2023-08-17T17:52:48.581Z,24.80
2023-08-17T17:55:15.915Z,24.94
2023-08-17T17:57:42.726Z,24.84
2023-08-17T18:00:12.285Z,24.91
2023-08-17T18:02:39.133Z,24.79
2023-08-17T18:05:10.283Z,24.67
2023-08-17T18:07:36.997Z,24.56
2023-08-17T18:10:04.395Z,24.37
2023-08-17T18:12:31.148Z,24.23
2023-08-17T18:14:57.900Z,24.08
2023-08-17T18:17:26.222Z,24.11
2023-08-17T18:19:53.181Z,24.13
2023-08-17T18:22:20.925Z,24.15
2023-08-17T18:24:47.712Z,23.98
2023-08-17T18:27:14.422Z,23.89
2023-08-17T18:29:41.230Z,23.82
2023-08-17T18:32:08.069Z,23.77
2023-08-17T18:34:36.208Z,23.65
2023-08-17T18:37:02.895Z,23.68
2023-08-17T18:39:29.645Z,23.57
2023-08-17T18:41:56.323Z,23.57
2023-08-17T18:44:23.143Z,23.47
2023-08-17T18:46:49.864Z,23.39
2023-08-17T18:49:16.599Z,23.37
2023-08-17T18:51:44.661Z,23.34
2023-08-17T18:54:11.433Z,23.37
2023-08-17T18:56:38.165Z,23.22
2023-08-17T18:59:05.308Z,23.24
2023-08-17T19:01:32.150Z,23.20
2023-08-17T19:03:59.121Z,23.06
2023-08-17T19:06:26.277Z,23.07
2023-08-17T19:08:54.399Z,23.03
2023-08-17T19:11:21.266Z,23.07
2023-08-17T19:13:48.068Z,22.92
2023-08-17T19:16:14.887Z,22.79
2023-08-17T19:18:41.736Z,22.82
2023-08-17T19:21:08.471Z,22.72
2023-08-17T19:23:35.605Z,22.62
2023-08-17T19:26:03.810Z,22.61
2023-08-17T19:28:30.529Z,22.58
2023-08-17T19:30:57.477Z,22.59
2023-08-17T19:33:24.326Z,22.48
2023-08-17T19:35:51.481Z,22.54
2023-08-17T19:38:18.788Z,22.47
2023-08-17T19:40:46.046Z,22.44
2023-08-17T19:43:14.146Z,22.37
2023-08-17T19:45:41.096Z,22.30
2023-08-17T19:48:08.189Z,22.24
2023-08-17T19:50:34.925Z,22.29
2023-08-17T19:53:01.750Z,22.25
2023-08-17T19:55:28.461Z,22.18
2023-08-17T19:57:55.147Z,22.11
2023-08-17T20:00:23.474Z,22.03
2023-08-17T20:02:50.209Z,22.06
2023-08-17T20:05:17.959Z,21.96
2023-08-17T20:07:44.705Z,21.86
2023-08-17T20:10:12.178Z,21.76
2023-08-17T20:12:38.906Z,21.71
2023-08-17T20:15:08.004Z,21.65
2023-08-17T20:17:36.866Z,21.56
2023-08-17T20:20:04.382Z,21.59
2023-08-17T20:22:31.107Z,21.49
2023-08-17T20:24:58.795Z,21.45
2023-08-17T20:27:25.642Z,21.31
2023-08-17T20:29:52.557Z,21.28
2023-08-17T20:32:19.268Z,21.30
2023-08-17T20:34:47.525Z,21.31
2023-08-17T20:37:14.302Z,21.28
2023-08-17T20:39:41.012Z,21.30
2023-08-17T20:42:08.566Z,21.32
2023-08-17T20:44:35.381Z,21.34
2023-08-17T20:47:02.102Z,21.37
2023-08-17T20:49:28.805Z,21.45
2023-08-17T20:51:57.412Z,21.45
2023-08-17T20:54:24.101Z,21.53
2023-08-17T20:56:50.799Z,21.52
2023-08-17T20:59:17.854Z,21.52
2023-08-17T21:01:45.284Z,21.53
2023-08-17T21:04:14.892Z,21.48
2023-08-17T21:06:41.563Z,21.49
2023-08-17T21:09:09.721Z,21.49
2023-08-17T21:11:37.840Z,21.35
2023-08-17T21:14:04.895Z,21.35
2023-08-17T21:16:31.573Z,21.34
2023-08-17T21:18:59.240Z,21.23
2023-08-17T21:21:27.504Z,21.15
2023-08-17T21:23:54.280Z,21.17
2023-08-17T21:26:22.395Z,21.05
2023-08-17T21:28:49.156Z,21.03
2023-08-17T21:31:16.520Z,21.05
2023-08-17T21:33:43.401Z,21.23
2023-08-17T21:36:10.169Z,21.18
2023-08-17T21:38:37.536Z,21.28
2023-08-17T21:41:04.282Z,21.37
2023-08-17T21:43:32.425Z,21.17
2023-08-17T21:45:59.846Z,20.97
2023-08-17T21:48:26.647Z,20.84
2023-08-17T21:50:53.563Z,20.76
2023-08-17T21:53:20.465Z,20.73
2023-08-17T21:55:48.124Z,20.62
2023-08-17T21:58:14.923Z,20.84
2023-08-17T22:00:43.012Z,20.90
2023-08-17T22:03:09.875Z,20.80
2023-08-17T22:05:36.765Z,20.65
2023-08-17T22:08:03.809Z,20.55
2023-08-17T22:10:30.586Z,20.52
2023-08-17T22:12:57.637Z,20.63
2023-08-17T22:15:24.449Z,20.59
2023-08-17T22:17:52.581Z,20.50
2023-08-17T22:20:19.443Z,20.63
2023-08-17T22:22:46.135Z,20.60
2023-08-17T22:25:13.102Z,20.46
2023-08-17T22:27:39.827Z,20.48
2023-08-17T22:30:07.782Z,20.63
2023-08-17T22:32:34.549Z,20.53
2023-08-17T22:35:02.794Z,20.42
2023-08-17T22:37:29.640Z,20.43
2023-08-17T22:39:56.611Z,20.46
2023-08-17T22:42:23.491Z,20.36
2023-08-17T22:44:50.265Z,20.29
2023-08-17T22:47:16.944Z,20.26
2023-08-17T22:49:43.743Z,20.24
2023-08-17T22:52:11.915Z,20.43
2023-08-17T22:54:38.728Z,20.49
2023-08-17T22:57:05.720Z,20.48
2023-08-17T22:59:32.423Z,20.45
2023-08-17T23:01:59.147Z,20.48
2023-08-17T23:04:28.739Z,20.46
2023-08-17T23:06:55.913Z,20.43
2023-08-17T23:09:23.972Z,20.46
2023-08-17T23:11:50.687Z,20.40
2023-08-17T23:14:17.339Z,20.57
2023-08-17T23:16:44.103Z,20.55
2023-08-17T23:19:10.854Z,20.45
2023-08-17T23:21:37.595Z,20.38
2023-08-17T23:24:05.031Z,20.32
2023-08-17T23:26:33.169Z,20.25
2023-08-17T23:28:59.937Z,20.24
2023-08-17T23:31:26.758Z,20.24
2023-08-17T23:33:53.527Z,20.24
2023-08-17T23:36:20.229Z,20.33
2023-08-17T23:38:46.992Z,20.35
2023-08-17T23:41:13.817Z,20.30
2023-08-17T23:43:41.904Z,20.22
2023-08-17T23:46:09.022Z,20.15
2023-08-17T23:48:35.770Z,20.07
2023-08-17T23:51:02.487Z,20.14
2023-08-17T23:53:29.361Z,20.01
2023-08-17T23:55:56.053Z,19.97
2023-08-17T23:58:22.797Z,19.92
